Time;durP1;ratioP1;P1;durP2;ratioP2;P2;SDS_P1;SDS_P2;PMS_P1;PMS_P2;Temp;Humidity;BMP_temperature;BMP_pressure;BME280_temperature;BME280_humidity;BME280_pressure;Samples;Min_cycle;Max_cycle;Signal;HPM_P1;HPM_P2
2022/02/18 00:02:06;;;;;;;10.40;2.45;;;6.80;99.90;;;;;;5002217;28;20061;-65
2022/02/18 00:04:32;;;;;;;9.45;2.03;;;6.80;99.90;;;;;;5004354;28;20029;-65
2022/02/18 00:06:59;;;;;;;9.55;2.55;;;6.80;99.90;;;;;;5003944;28;20842;-65
2022/02/18 00:09:25;;;;;;;10.18;2.35;;;6.80;99.90;;;;;;5002923;28;20029;-65
2022/02/18 00:11:51;;;;;;;12.05;2.05;;;6.80;99.90;;;;;;5002486;28;20057;-65
2022/02/18 00:14:16;;;;;;;9.55;2.30;;;6.80;99.90;;;;;;5002237;28;20034;-65
2022/02/18 00:16:42;;;;;;;9.50;2.30;;;6.80;99.90;;;;;;5004561;28;20112;-65
2022/02/18 00:19:08;;;;;;;10.25;2.47;;;6.80;99.90;;;;;;5018463;28;20045;-65
2022/02/18 00:21:34;;;;;;;8.10;1.90;;;6.80;99.90;;;;;;5003439;28;20045;-65
2022/02/18 00:24:00;;;;;;;13.63;2.85;;;6.90;99.90;;;;;;5004270;28;20041;-65
2022/02/18 00:26:26;;;;;;;8.40;1.52;;;7.00;99.90;;;;;;5002696;28;20742;-65
2022/02/18 00:28:52;;;;;;;8.75;2.15;;;6.90;99.90;;;;;;5003573;28;20034;-65
2022/02/18 00:31:17;;;;;;;8.98;2.25;;;6.90;99.90;;;;;;5002266;28;20581;-65
2022/02/18 00:33:43;;;;;;;9.52;2.28;;;6.90;99.90;;;;;;5003028;28;20068;-65
2022/02/18 00:36:08;;;;;;;6.50;1.85;;;6.90;99.90;;;;;;5002207;28;20057;-65
2022/02/18 00:38:34;;;;;;;9.60;1.90;;;7.00;99.90;;;;;;5002905;28;20592;-65
2022/02/18 00:41:00;;;;;;;12.55;2.60;;;7.00;99.90;;;;;;5003183;28;20029;-65
2022/02/18 00:43:25;;;;;;;9.32;2.28;;;7.00;99.90;;;;;;5002998;28;20116;-65
2022/02/18 00:45:51;;;;;;;8.07;2.10;;;7.00;99.90;;;;;;5003954;28;20433;-65
2022/02/18 00:48:17;;;;;;;6.68;2.50;;;7.00;99.90;;;;;;5002579;28;20029;-65
2022/02/18 00:50:45;;;;;;;7.72;2.15;;;7.00;99.90;;;;;;5003519;28;20030;-65
2022/02/18 00:53:11;;;;;;;11.15;2.60;;;7.10;99.90;;;;;;5002023;28;20033;-65
2022/02/18 00:55:37;;;;;;;7.97;1.90;;;7.10;99.90;;;;;;5017160;28;20046;-65
2022/02/18 00:58:03;;;;;;;9.43;1.90;;;7.00;99.90;;;;;;5002356;28;20056;-65
2022/02/18 01:00:28;;;;;;;11.05;2.13;;;6.90;99.90;;;;;;5002730;28;20037;-65
2022/02/18 01:02:54;;;;;;;9.45;2.90;;;6.80;99.90;;;;;;5002324;28;20092;-65
2022/02/18 01:05:19;;;;;;;6.47;2.00;;;6.80;99.90;;;;;;5003166;28;20049;-65
2022/02/18 01:07:45;;;;;;;9.77;1.70;;;6.70;99.90;;;;;;5003720;28;20042;-65
2022/02/18 01:10:12;;;;;;;8.88;2.00;;;6.70;99.90;;;;;;5001828;28;20097;-65
2022/02/18 01:12:37;;;;;;;6.53;1.60;;;6.80;99.90;;;;;;5002737;28;20353;-65
2022/02/18 01:15:05;;;;;;;7.90;2.90;;;6.80;99.90;;;;;;5003607;28;20037;-65
2022/02/18 01:17:30;;;;;;;9.82;2.55;;;6.80;99.90;;;;;;5004794;28;20046;-65
2022/02/18 01:19:56;;;;;;;7.28;1.98;;;6.70;99.90;;;;;;5002323;28;20038;-66
2022/02/18 01:22:22;;;;;;;12.52;1.85;;;6.80;99.90;;;;;;5002871;28;20121;-65
2022/02/18 01:24:47;;;;;;;8.23;2.67;;;6.80;99.90;;;;;;5002923;28;20105;-65
2022/02/18 01:27:13;;;;;;;7.88;2.33;;;6.90;99.90;;;;;;5003582;28;20046;-65
2022/02/18 01:29:39;;;;;;;10.30;2.03;;;6.90;99.90;;;;;;5002719;28;20158;-65
2022/02/18 01:32:09;;;;;;;8.38;2.03;;;6.80;99.90;;;;;;5003125;28;20042;-65
2022/02/18 01:34:35;;;;;;;7.22;1.80;;;6.80;99.90;;;;;;5002366;28;20176;-65
2022/02/18 01:37:00;;;;;;;6.18;1.77;;;6.80;99.90;;;;;;5001106;28;20837;-65
2022/02/18 01:39:26;;;;;;;10.15;2.45;;;6.90;99.90;;;;;;5001780;28;20051;-65
2022/02/18 01:41:51;;;;;;;10.27;2.85;;;6.80;99.90;;;;;;5001113;28;20144;-65
2022/02/18 01:44:39;;;;;;;7.40;2.03;;;6.90;99.90;;;;;;5000120;28;20076;-65
2022/02/18 01:47:07;;;;;;;6.88;1.75;;;6.90;99.90;;;;;;5002146;28;20567;-65
2022/02/18 01:49:33;;;;;;;7.10;1.80;;;6.90;99.90;;;;;;5001008;28;20030;-65
2022/02/18 01:51:59;;;;;;;7.32;2.15;;;7.00;99.90;;;;;;5003574;28;20419;-65
2022/02/18 01:54:25;;;;;;;8.50;2.05;;;7.00;99.90;;;;;;5002709;28;20711;-65
2022/02/18 01:56:51;;;;;;;4.32;1.67;;;7.00;99.90;;;;;;5003106;28;20034;-65
2022/02/18 01:59:16;;;;;;;13.25;2.53;;;7.10;99.90;;;;;;5003512;28;20836;-65
2022/02/18 02:01:42;;;;;;;9.30;2.10;;;7.00;99.90;;;;;;5001955;28;20453;-65
2022/02/18 02:04:08;;;;;;;11.10;1.98;;;7.00;99.90;;;;;;5002384;28;20133;-65
2022/02/18 02:06:34;;;;;;;6.47;2.42;;;7.10;99.90;;;;;;5001690;28;20040;-65
2022/02/18 02:09:00;;;;;;;7.25;2.35;;;7.10;99.90;;;;;;5002616;28;20030;-66
2022/02/18 02:11:25;;;;;;;6.45;2.03;;;7.10;99.90;;;;;;5002582;28;20072;-65
2022/02/18 02:13:51;;;;;;;8.43;2.15;;;7.10;99.90;;;;;;5003309;28;20183;-65
2022/02/18 02:16:17;;;;;;;6.05;1.67;;;7.10;99.90;;;;;;5002381;28;20432;-65
2022/02/18 02:18:46;;;;;;;8.48;2.33;;;7.10;99.90;;;;;;5003450;28;20038;-65
2022/02/18 02:21:13;;;;;;;9.13;1.90;;;7.20;99.90;;;;;;5002812;28;20052;-65
2022/02/18 02:23:39;;;;;;;9.13;2.93;;;7.30;99.90;;;;;;5001461;28;20024;-65
2022/02/18 02:26:13;;;;;;;8.50;2.50;;;7.40;99.90;;;;;;5001684;28;20285;-65
2022/02/18 02:28:39;;;;;;;7.95;2.22;;;7.40;99.90;;;;;;5003419;28;20045;-65
2022/02/18 02:31:05;;;;;;;6.70;1.45;;;7.40;99.90;;;;;;5001768;28;20057;-65
2022/02/18 02:33:31;;;;;;;8.07;1.65;;;7.40;99.90;;;;;;5001779;28;20034;-65
2022/02/18 02:35:57;;;;;;;12.48;2.47;;;7.40;99.90;;;;;;5002804;28;20030;-65
2022/02/18 02:38:22;;;;;;;5.35;1.70;;;7.40;99.90;;;;;;5001200;28;20030;-65
2022/02/18 02:40:48;;;;;;;9.80;2.22;;;7.50;99.90;;;;;;5003134;28;20608;-65
2022/02/18 02:43:14;;;;;;;8.88;1.85;;;7.40;99.90;;;;;;5002700;28;20108;-65
2022/02/18 02:45:40;;;;;;;12.07;2.10;;;7.50;99.90;;;;;;5002707;28;20076;-65
2022/02/18 02:48:06;;;;;;;7.72;1.73;;;7.60;99.90;;;;;;5002780;28;20683;-66
2022/02/18 02:50:31;;;;;;;7.13;1.65;;;7.60;99.90;;;;;;5003108;28;20121;-65
2022/02/18 02:52:57;;;;;;;4.40;1.48;;;7.60;99.90;;;;;;5001882;28;20144;-65
2022/02/18 02:55:23;;;;;;;8.07;3.00;;;7.70;99.90;;;;;;5003042;28;20065;-65
2022/02/18 02:57:49;;;;;;;11.65;2.22;;;7.80;99.90;;;;;;5002618;28;20224;-65
2022/02/18 03:00:16;;;;;;;6.43;1.55;;;7.80;99.90;;;;;;5001994;28;20041;-65
2022/02/18 03:02:42;;;;;;;4.45;1.70;;;7.80;99.90;;;;;;5001308;28;20038;-67
2022/02/18 03:05:08;;;;;;;11.98;2.65;;;7.80;99.90;;;;;;5001549;28;21778;-66
2022/02/18 03:07:34;;;;;;;18.50;2.65;;;7.80;99.90;;;;;;5000910;28;20128;-66
2022/02/18 03:10:00;;;;;;;14.43;2.25;;;7.80;99.90;;;;;;5002483;28;20556;-65
2022/02/18 03:12:26;;;;;;;6.88;2.28;;;7.90;99.90;;;;;;5002401;28;20030;-66
2022/02/18 03:14:51;;;;;;;8.50;1.92;;;7.90;99.90;;;;;;5002645;28;20084;-66
2022/02/18 03:17:17;;;;;;;8.95;2.20;;;7.90;99.90;;;;;;5003783;28;20026;-65
2022/02/18 03:19:43;;;;;;;5.50;1.70;;;7.90;99.90;;;;;;5006412;28;20033;-65
2022/02/18 03:22:09;;;;;;;7.53;2.17;;;7.90;99.90;;;;;;5005964;28;20175;-65
2022/02/18 03:24:35;;;;;;;7.65;2.08;;;7.80;99.90;;;;;;5006054;28;20045;-65
2022/02/18 03:27:01;;;;;;;10.20;2.00;;;7.80;99.90;;;;;;5005472;28;20079;-65
2022/02/18 03:29:27;;;;;;;6.80;2.00;;;7.80;99.90;;;;;;5005440;28;20037;-65
2022/02/18 03:31:53;;;;;;;7.20;1.95;;;7.80;99.90;;;;;;5005008;28;20046;-65
2022/02/18 03:34:19;;;;;;;6.82;1.55;;;7.80;99.90;;;;;;5004916;28;20031;-66
2022/02/18 03:36:45;;;;;;;8.05;1.80;;;7.80;99.90;;;;;;5006461;28;20635;-65
2022/02/18 03:39:11;;;;;;;6.22;1.98;;;7.80;99.90;;;;;;5004680;28;20034;-66
2022/02/18 03:41:36;;;;;;;9.55;1.73;;;7.80;99.90;;;;;;5006095;28;20721;-65
2022/02/18 03:44:03;;;;;;;7.25;2.00;;;7.80;99.90;;;;;;5005104;28;20030;-65
2022/02/18 03:46:28;;;;;;;11.20;2.03;;;7.90;99.90;;;;;;5004569;28;20034;-66
2022/02/18 03:48:54;;;;;;;6.55;1.65;;;7.90;99.90;;;;;;5005697;28;20481;-65
2022/02/18 03:51:19;;;;;;;5.57;1.83;;;7.90;99.90;;;;;;5005318;28;20041;-66
2022/02/18 03:53:49;;;;;;;7.47;1.80;;;7.90;99.90;;;;;;5005134;28;20120;-65
2022/02/18 03:56:15;;;;;;;8.57;2.05;;;7.90;99.90;;;;;;5007337;28;20121;-66
2022/02/18 03:58:41;;;;;;;5.75;1.60;;;7.90;99.90;;;;;;5005108;28;20436;-65
2022/02/18 04:01:06;;;;;;;6.78;1.73;;;7.90;99.90;;;;;;5004597;28;20054;-66
2022/02/18 04:03:32;;;;;;;10.60;2.38;;;7.80;99.90;;;;;;5005387;28;20512;-65
2022/02/18 04:05:58;;;;;;;8.27;2.15;;;7.80;99.90;;;;;;5003989;28;20460;-65
2022/02/18 04:08:24;;;;;;;7.93;1.98;;;7.80;99.90;;;;;;5004364;28;20481;-65
2022/02/18 04:10:49;;;;;;;11.23;2.88;;;7.70;99.90;;;;;;5004828;28;20519;-65
2022/02/18 04:13:15;;;;;;;11.57;2.40;;;7.80;99.90;;;;;;5004102;28;20034;-65
2022/02/18 04:15:40;;;;;;;7.05;1.90;;;7.80;99.90;;;;;;5005085;28;20029;-65
2022/02/18 04:18:06;;;;;;;7.45;2.13;;;7.90;99.90;;;;;;5004182;28;20104;-66
2022/02/18 04:20:32;;;;;;;7.00;2.00;;;7.90;99.90;;;;;;5005490;28;20067;-65
2022/02/18 04:22:58;;;;;;;7.15;2.28;;;7.90;99.90;;;;;;5003678;28;20558;-65
2022/02/18 04:25:23;;;;;;;7.63;1.58;;;7.90;99.90;;;;;;5005215;28;20437;-65
2022/02/18 04:28:00;;;;;;;9.32;2.38;;;7.90;99.90;;;;;;5004138;28;20057;-65
2022/02/18 04:30:26;;;;;;;10.38;1.95;;;7.80;99.90;;;;;;5003602;28;20932;-66
2022/02/18 04:32:52;;;;;;;6.50;1.65;;;7.70;99.90;;;;;;5005159;28;20837;-65
2022/02/18 04:35:19;;;;;;;4.35;1.70;;;7.80;99.90;;;;;;5004740;28;20034;-65
2022/02/18 04:37:44;;;;;;;10.40;2.60;;;7.80;99.90;;;;;;5004840;28;20071;-66
2022/02/18 04:40:13;;;;;;;8.77;1.85;;;7.80;99.90;;;;;;5004469;28;20030;-66
2022/02/18 04:42:41;;;;;;;6.43;1.63;;;7.70;99.90;;;;;;5004811;28;20049;-66
2022/02/18 04:45:08;;;;;;;11.10;2.50;;;7.70;99.90;;;;;;4999472;28;20029;-65
2022/02/18 04:47:33;;;;;;;6.05;2.00;;;7.70;99.90;;;;;;5003953;28;20037;-65
2022/02/18 04:49:59;;;;;;;9.23;1.80;;;7.70;99.90;;;;;;5004141;28;20026;-65
2022/02/18 04:52:25;;;;;;;10.95;2.00;;;7.70;99.90;;;;;;5004335;28;20058;-66
2022/02/18 04:54:53;;;;;;;5.47;1.63;;;7.70;99.90;;;;;;5003276;28;20108;-65
2022/02/18 04:57:19;;;;;;;8.13;1.92;;;7.80;99.90;;;;;;5004665;28;20033;-65
2022/02/18 04:59:44;;;;;;;9.57;1.90;;;7.70;99.90;;;;;;5003548;28;20089;-65
2022/02/18 05:02:10;;;;;;;8.07;2.03;;;7.80;99.90;;;;;;5003761;28;20037;-65
2022/02/18 05:04:36;;;;;;;5.20;1.88;;;7.70;99.90;;;;;;5004801;28;20038;-66
2022/02/18 05:07:02;;;;;;;8.30;2.00;;;7.70;99.90;;;;;;5003275;28;20041;-66
2022/02/18 05:09:27;;;;;;;4.82;1.95;;;7.70;99.90;;;;;;5003553;28;20500;-65
2022/02/18 05:11:53;;;;;;;6.03;1.80;;;7.60;99.90;;;;;;5003557;28;20033;-66
2022/02/18 05:14:19;;;;;;;5.15;1.70;;;7.60;99.90;;;;;;5004555;28;20488;-66
2022/02/18 05:16:45;;;;;;;10.77;2.00;;;7.60;99.90;;;;;;5003103;28;20042;-66
2022/02/18 05:19:11;;;;;;;3.03;1.60;;;7.60;99.90;;;;;;5002340;28;20080;-66
2022/02/18 05:21:37;;;;;;;13.25;2.58;;;7.60;99.90;;;;;;5003988;28;20167;-65
2022/02/18 05:24:04;;;;;;;2.72;1.33;;;7.60;99.90;;;;;;5002772;28;20057;-66
2022/02/18 05:26:30;;;;;;;6.78;1.55;;;7.60;99.90;;;;;;5003497;28;20049;-65
2022/02/18 05:28:55;;;;;;;6.72;2.63;;;7.60;99.90;;;;;;5004036;28;20038;-65
2022/02/18 05:31:21;;;;;;;9.65;1.67;;;7.60;99.90;;;;;;5003251;28;20033;-66
2022/02/18 05:33:47;;;;;;;6.40;1.58;;;7.60;99.90;;;;;;5003471;28;20073;-66
2022/02/18 05:36:13;;;;;;;4.70;1.40;;;7.60;99.90;;;;;;5003590;28;20073;-65
2022/02/18 05:38:42;;;;;;;10.27;1.70;;;7.50;99.90;;;;;;5003803;28;20084;-66
2022/02/18 05:41:12;;;;;;;10.07;1.83;;;7.50;99.90;;;;;;5002400;28;20034;-66
2022/02/18 05:43:37;;;;;;;6.22;1.33;;;7.50;99.90;;;;;;5002555;28;20041;-66
2022/02/18 05:46:04;;;;;;;6.82;1.83;;;7.50;99.90;;;;;;5003596;28;20048;-66
2022/02/18 05:48:31;;;;;;;7.95;2.00;;;7.50;99.90;;;;;;5001950;28;20116;-66
2022/02/18 05:50:57;;;;;;;7.68;2.25;;;7.50;99.90;;;;;;5002140;28;20117;-65
2022/02/18 05:53:23;;;;;;;7.55;2.25;;;7.50;99.90;;;;;;5003418;28;20034;-66
2022/02/18 05:55:48;;;;;;;4.50;1.80;;;7.50;99.90;;;;;;5003075;28;20084;-66
2022/02/18 05:58:14;;;;;;;5.75;2.15;;;7.50;99.90;;;;;;5001770;28;20148;-66
2022/02/18 06:00:39;;;;;;;7.00;1.65;;;7.50;99.90;;;;;;5002662;28;20632;-66
2022/02/18 06:03:05;;;;;;;6.50;1.98;;;7.50;99.90;;;;;;5003411;28;20025;-66
2022/02/18 06:05:31;;;;;;;5.60;1.98;;;7.50;99.90;;;;;;5001714;28;20900;-66
2022/02/18 06:08:00;;;;;;;9.25;2.20;;;7.50;99.90;;;;;;5003086;28;20038;-65
2022/02/18 06:10:25;;;;;;;7.78;2.28;;;7.50;99.90;;;;;;5003078;28;20030;-65
2022/02/18 06:12:51;;;;;;;5.22;1.70;;;7.50;99.90;;;;;;5002910;28;20076;-65
2022/02/18 06:15:17;;;;;;;5.70;2.35;;;7.50;99.90;;;;;;4999644;28;20480;-65
2022/02/18 06:17:44;;;;;;;3.08;1.67;;;7.50;99.90;;;;;;5002126;28;20515;-65
2022/02/18 06:20:10;;;;;;;7.30;1.65;;;7.50;99.90;;;;;;5001597;28;20042;-65
2022/02/18 06:22:36;;;;;;;6.85;2.05;;;7.50;99.90;;;;;;5002803;28;20045;-65
2022/02/18 06:25:07;;;;;;;11.88;1.67;;;7.50;99.90;;;;;;5001993;28;20147;-65
2022/02/18 06:27:33;;;;;;;9.63;2.28;;;7.50;99.90;;;;;;5001955;28;20084;-65
2022/02/18 06:29:58;;;;;;;11.93;2.20;;;7.50;99.90;;;;;;5002307;28;20503;-65
2022/02/18 06:32:24;;;;;;;7.05;1.75;;;7.50;99.90;;;;;;5001255;28;20045;-66
2022/02/18 06:34:53;;;;;;;7.03;2.58;;;7.50;99.90;;;;;;5002097;28;20109;-65
2022/02/18 06:37:20;;;;;;;9.18;1.60;;;7.50;99.90;;;;;;5002063;28;20425;-66
2022/02/18 06:39:46;;;;;;;25.50;7.32;;;7.50;99.90;;;;;;5002498;28;20516;-65
2022/02/18 06:42:12;;;;;;;8.70;2.30;;;7.50;99.90;;;;;;4997148;28;20069;-65
2022/02/18 06:44:37;;;;;;;11.35;2.72;;;7.50;99.90;;;;;;5012958;28;20117;-65
2022/02/18 06:47:03;;;;;;;7.20;2.58;;;7.50;99.90;;;;;;5001254;28;20038;-65
2022/02/18 06:49:29;;;;;;;10.30;2.83;;;7.50;99.90;;;;;;5001999;28;20057;-65
2022/02/18 06:51:55;;;;;;;36.78;9.43;;;7.50;99.90;;;;;;5004154;28;20497;-66
2022/02/18 06:54:28;;;;;;;15.80;3.53;;;7.50;99.90;;;;;;5005402;28;20966;-65
2022/02/18 06:56:55;;;;;;;14.15;2.85;;;7.50;99.90;;;;;;5006047;28;20048;-65
2022/02/18 06:59:21;;;;;;;9.57;2.83;;;7.50;99.90;;;;;;5005490;28;20037;-65
2022/02/18 07:01:50;;;;;;;18.30;4.72;;;7.60;99.90;;;;;;5007600;28;20095;-65
2022/02/18 07:04:16;;;;;;;7.05;2.15;;;7.50;99.90;;;;;;5007966;28;20060;-66
2022/02/18 07:06:42;;;;;;;10.27;2.00;;;7.50;99.90;;;;;;5009904;28;20061;-66
2022/02/18 07:09:11;;;;;;;15.02;3.33;;;7.50;99.90;;;;;;5010697;28;20060;-65
2022/02/18 07:11:37;;;;;;;44.10;11.10;;;7.50;99.90;;;;;;5006281;28;20026;-66
2022/02/18 07:14:03;;;;;;;7.63;2.80;;;7.50;99.90;;;;;;5009495;28;20037;-66
2022/02/18 07:16:29;;;;;;;7.80;2.42;;;7.50;99.90;;;;;;5008359;28;20357;-66
2022/02/18 07:18:54;;;;;;;9.25;2.05;;;7.50;99.90;;;;;;5005482;28;20388;-66
2022/02/18 07:21:20;;;;;;;10.63;3.50;;;7.60;99.90;;;;;;5012964;28;20113;-66
2022/02/18 07:23:46;;;;;;;8.82;2.60;;;7.60;99.90;;;;;;5009855;28;20709;-65
2022/02/18 07:26:11;;;;;;;12.95;2.65;;;7.60;99.90;;;;;;5022867;28;20489;-66
2022/02/18 07:28:37;;;;;;;6.40;1.95;;;7.70;99.90;;;;;;5005195;28;20100;-65
2022/02/18 07:31:02;;;;;;;6.80;2.13;;;7.70;99.90;;;;;;5002616;28;20038;-66
2022/02/18 07:33:28;;;;;;;8.20;2.80;;;7.70;99.90;;;;;;5003229;28;20072;-65
2022/02/18 07:35:54;;;;;;;8.10;2.22;;;7.70;99.90;;;;;;5005543;28;20417;-65
2022/02/18 07:38:19;;;;;;;8.20;2.03;;;7.70;99.90;;;;;;5007282;28;20104;-65
2022/02/18 07:40:45;;;;;;;6.85;2.15;;;7.70;99.90;;;;;;5006746;28;20123;-66
2022/02/18 07:43:11;;;;;;;7.13;2.00;;;7.80;99.90;;;;;;5006153;28;20037;-66
2022/02/18 07:45:36;;;;;;;8.73;2.67;;;7.80;99.90;;;;;;5005718;28;20022;-65
2022/02/18 07:48:03;;;;;;;4.63;1.58;;;7.80;99.90;;;;;;5006091;28;20049;-66
2022/02/18 07:50:28;;;;;;;6.65;2.20;;;7.80;99.90;;;;;;5006561;28;20040;-65
2022/02/18 07:52:54;;;;;;;9.60;2.00;;;7.80;99.90;;;;;;5006195;28;20030;-65
2022/02/18 07:55:20;;;;;;;8.38;2.65;;;7.80;99.90;;;;;;5005873;28;20108;-66
2022/02/18 07:57:45;;;;;;;10.43;2.58;;;7.90;99.90;;;;;;5005607;28;20045;-66
2022/02/18 08:00:12;;;;;;;6.10;2.78;;;7.90;99.90;;;;;;5006992;28;20038;-66
2022/02/18 08:02:38;;;;;;;8.73;1.85;;;7.90;99.90;;;;;;5007198;28;20837;-65
2022/02/18 08:05:04;;;;;;;10.43;2.47;;;8.00;99.90;;;;;;5011651;28;20041;-65
2022/02/18 08:07:30;;;;;;;7.38;1.77;;;8.00;99.90;;;;;;5005464;28;20045;-66
2022/02/18 08:09:55;;;;;;;9.52;2.30;;;8.00;99.90;;;;;;5011947;28;20038;-65
2022/02/18 08:12:21;;;;;;;6.47;1.98;;;8.00;99.90;;;;;;5008099;28;20033;-66
2022/02/18 08:14:46;;;;;;;12.13;2.10;;;8.10;99.90;;;;;;5004999;28;20034;-65
2022/02/18 08:17:12;;;;;;;9.70;2.20;;;8.10;99.90;;;;;;5005042;28;20172;-65
2022/02/18 08:19:38;;;;;;;9.05;2.25;;;8.10;99.90;;;;;;5006884;28;20503;-65
2022/02/18 08:22:03;;;;;;;7.07;2.22;;;8.20;99.90;;;;;;5004072;28;20588;-66
2022/02/18 08:24:30;;;;;;;5.13;1.70;;;8.20;99.90;;;;;;5005422;28;20372;-65
2022/02/18 08:26:57;;;;;;;5.68;1.85;;;8.20;99.90;;;;;;5005834;28;20087;-66
2022/02/18 08:29:23;;;;;;;8.18;2.10;;;8.20;99.90;;;;;;5005508;28;20026;-66
2022/02/18 08:31:50;;;;;;;5.72;1.80;;;8.30;99.90;;;;;;5004451;28;20052;-66
2022/02/18 08:34:16;;;;;;;8.50;1.85;;;8.30;99.90;;;;;;5007184;28;20057;-65
2022/02/18 08:36:42;;;;;;;4.78;2.28;;;8.30;99.90;;;;;;5004052;28;20026;-66
2022/02/18 08:39:08;;;;;;;4.88;1.55;;;8.40;99.90;;;;;;5005592;28;20045;-66
2022/02/18 08:41:35;;;;;;;7.93;2.22;;;8.40;99.90;;;;;;5004913;28;20034;-65
2022/02/18 08:44:01;;;;;;;8.32;2.63;;;8.50;99.90;;;;;;5010129;28;20465;-66
2022/02/18 08:46:29;;;;;;;6.47;1.80;;;8.60;99.90;;;;;;5005829;28;20416;-65
2022/02/18 08:48:55;;;;;;;7.35;2.08;;;8.60;99.90;;;;;;5005597;28;20049;-65
2022/02/18 08:51:21;;;;;;;6.15;1.63;;;8.70;99.90;;;;;;5004308;28;20052;-66
2022/02/18 08:53:47;;;;;;;4.28;1.33;;;8.90;99.90;;;;;;5004210;28;20183;-66
2022/02/18 08:56:13;;;;;;;2.17;1.40;;;8.90;99.90;;;;;;5004591;28;20037;-65
2022/02/18 08:58:39;;;;;;;2.78;1.38;;;8.90;99.90;;;;;;5004270;28;20644;-66
2022/02/18 09:01:04;;;;;;;3.00;1.67;;;9.00;99.90;;;;;;5002668;28;20069;-66
2022/02/18 09:03:30;;;;;;;6.35;2.38;;;9.00;99.90;;;;;;5003863;28;20105;-66
2022/02/18 09:05:56;;;;;;;3.70;1.60;;;9.00;99.90;;;;;;5011465;28;20030;-65
2022/02/18 09:08:24;;;;;;;4.38;1.30;;;9.10;99.90;;;;;;5005090;28;20088;-66
2022/02/18 09:10:54;;;;;;;3.63;1.35;;;9.20;99.90;;;;;;5003578;28;20025;-65
2022/02/18 09:13:23;;;;;;;1.88;1.02;;;9.20;99.90;;;;;;5003961;28;20029;-65
2022/02/18 09:15:50;;;;;;;4.70;1.75;;;9.20;99.90;;;;;;5003853;28;20125;-66
2022/02/18 09:18:16;;;;;;;2.28;1.55;;;9.30;99.90;;;;;;5004491;28;20077;-65
2022/02/18 09:20:42;;;;;;;3.83;1.30;;;9.40;99.90;;;;;;5004811;28;20033;-65
2022/02/18 09:23:07;;;;;;;3.38;1.17;;;9.40;99.90;;;;;;5004445;28;20026;-65
2022/02/18 09:25:33;;;;;;;2.35;1.20;;;9.40;99.90;;;;;;5004478;28;20038;-65
2022/02/18 09:28:00;;;;;;;6.80;1.30;;;9.50;99.90;;;;;;5003987;28;20064;-65
2022/02/18 09:30:26;;;;;;;6.63;1.83;;;9.50;99.90;;;;;;5003099;28;20038;-66
2022/02/18 09:32:52;;;;;;;3.88;1.40;;;9.50;99.90;;;;;;5003068;28;20038;-65
2022/02/18 09:35:18;;;;;;;5.25;1.58;;;9.50;99.90;;;;;;5003146;28;20032;-65
2022/02/18 09:37:43;;;;;;;4.30;1.20;;;9.60;99.90;;;;;;5003784;28;20046;-65
2022/02/18 09:40:10;;;;;;;2.83;1.30;;;9.70;99.90;;;;;;5002360;28;20389;-65
2022/02/18 09:42:40;;;;;;;1.73;0.98;;;9.70;99.90;;;;;;5002572;28;20037;-65
2022/02/18 09:45:06;;;;;;;5.28;0.90;;;9.70;99.90;;;;;;5002491;28;20045;-65
2022/02/18 09:47:32;;;;;;;1.85;1.25;;;9.80;99.90;;;;;;5004245;28;20034;-65
2022/02/18 09:49:59;;;;;;;2.92;1.17;;;9.80;99.90;;;;;;5002652;28;20029;-65
2022/02/18 09:52:25;;;;;;;1.58;1.00;;;9.90;99.90;;;;;;5003823;28;20041;-66
2022/02/18 09:54:51;;;;;;;3.67;1.00;;;10.00;99.90;;;;;;5004266;28;20018;-65
2022/02/18 09:57:17;;;;;;;1.23;1.13;;;10.00;99.90;;;;;;5004043;28;20095;-65
2022/02/18 09:59:43;;;;;;;2.40;1.00;;;10.00;99.90;;;;;;5002959;28;20045;-65
2022/02/18 10:02:10;;;;;;;3.05;1.27;;;10.10;99.90;;;;;;5003531;28;20050;-66
2022/02/18 10:04:36;;;;;;;2.30;0.80;;;10.10;99.90;;;;;;5001776;28;20034;-65
2022/02/18 10:07:05;;;;;;;2.05;1.25;;;10.10;99.90;;;;;;5002369;28;20318;-66
2022/02/18 10:09:49;;;;;;;5.82;1.00;;;10.20;99.90;;;;;;5004051;28;20378;-66
2022/02/18 10:12:15;;;;;;;1.33;1.10;;;10.20;99.90;;;;;;5003799;28;20084;-66
2022/02/18 10:14:58;;;;;;;2.42;1.05;;;10.30;99.90;;;;;;4995392;28;20058;-66
2022/02/18 10:17:37;;;;;;;1.75;1.20;;;10.30;99.90;;;;;;5005155;28;20042;-65
2022/02/18 10:20:17;;;;;;;2.38;1.00;;;10.40;99.90;;;;;;5004039;28;20116;-65
2022/02/18 10:23:04;;;;;;;4.28;1.20;;;10.50;99.90;;;;;;5003664;28;20033;-66
2022/02/18 10:25:32;;;;;;;3.55;1.35;;;10.70;99.90;;;;;;5003994;28;20033;-66
2022/02/18 10:27:58;;;;;;;2.38;1.10;;;10.80;99.90;;;;;;5005883;28;20053;-65
2022/02/18 10:30:25;;;;;;;2.55;1.25;;;10.90;99.90;;;;;;5005942;28;20388;-66
2022/02/18 10:32:55;;;;;;;1.55;0.90;;;10.90;99.60;;;;;;5007130;28;20061;-65
2022/02/18 10:35:30;;;;;;;1.67;1.05;;;11.00;99.30;;;;;;5008366;28;20453;-65
2022/02/18 10:37:56;;;;;;;2.90;1.10;;;11.00;98.40;;;;;;5004748;28;20088;-65
2022/02/18 10:40:22;;;;;;;3.03;1.05;;;11.10;99.50;;;;;;5007684;28;20034;-66
2022/02/18 10:42:50;;;;;;;3.42;1.33;;;11.20;99.90;;;;;;5007602;28;20483;-65
2022/02/18 10:45:20;;;;;;;;;;;11.20;99.90;;;;;;5007348;28;20033;-65
2022/02/18 10:47:51;;;;;;;0.95;0.70;;;11.30;99.90;;;;;;5007098;28;19956;-66
2022/02/18 10:50:26;;;;;;;1.67;0.70;;;11.30;99.80;;;;;;5005781;28;20774;-65
2022/02/18 10:53:19;;;;;;;3.08;1.10;;;11.40;99.20;;;;;;5006720;28;20034;-66
2022/02/18 10:55:57;;;;;;;1.80;0.60;;;11.50;99.70;;;;;;5007332;28;20036;-65
2022/02/18 10:58:31;;;;;;;2.33;1.10;;;11.60;97.70;;;;;;5005226;28;20044;-65
2022/02/18 11:01:20;;;;;;;6.07;0.75;;;11.60;97.60;;;;;;5004109;28;20050;-66
2022/02/18 11:03:46;;;;;;;1.35;0.60;;;11.70;95.70;;;;;;5007348;28;20656;-65
2022/02/18 11:06:39;;;;;;;2.08;0.90;;;11.60;95.30;;;;;;5007939;28;20026;-65
2022/02/18 11:09:07;;;;;;;1.75;0.77;;;11.60;96.90;;;;;;5006661;28;20048;-65
2022/02/18 11:11:33;;;;;;;1.23;0.80;;;11.70;94.70;;;;;;5007307;28;20038;-66
2022/02/18 11:14:00;;;;;;;5.25;0.80;;;11.70;97.60;;;;;;5007034;28;20036;-65
2022/02/18 11:16:28;;;;;;;1.48;0.57;;;11.70;98.10;;;;;;5009265;28;20033;-66
2022/02/18 11:18:55;;;;;;;2.28;0.80;;;11.70;97.30;;;;;;5006618;28;20048;-65
2022/02/18 11:21:21;;;;;;;3.07;1.00;;;11.70;96.20;;;;;;5021785;28;20038;-66
2022/02/18 11:23:48;;;;;;;0.70;0.70;;;11.70;95.50;;;;;;5007178;28;20037;-66
2022/02/18 11:26:20;;;;;;;0.82;0.80;;;11.70;96.30;;;;;;5007234;28;20393;-65
2022/02/18 11:28:47;;;;;;;2.17;1.02;;;11.70;97.70;;;;;;5006649;28;20045;-65
2022/02/18 11:31:26;;;;;;;1.40;1.10;;;11.70;98.30;;;;;;5003787;28;20404;-66
2022/02/18 11:34:10;;;;;;;1.42;0.95;;;11.70;97.20;;;;;;5004782;28;20068;-66
2022/02/18 11:37:14;;;;;;;2.65;1.10;;;11.70;97.10;;;;;;5005742;28;20088;-65
2022/02/18 11:39:58;;;;;;;1.25;0.80;;;11.70;97.80;;;;;;4964148;28;20050;-65
2022/02/18 11:42:52;;;;;;;2.22;0.93;;;11.80;96.70;;;;;;4963975;28;20038;-65
2022/02/18 11:45:19;;;;;;;1.95;0.70;;;11.90;98.10;;;;;;5004373;28;20045;-66
2022/02/18 11:47:48;;;;;;;1.48;1.15;;;12.00;97.40;;;;;;5006142;28;20108;-65
2022/02/18 11:50:16;;;;;;;4.53;1.00;;;12.10;96.30;;;;;;5006345;28;20476;-65
2022/02/18 11:52:50;;;;;;;1.92;1.00;;;12.10;98.60;;;;;;5006350;28;20036;-65
2022/02/18 11:55:28;;;;;;;1.75;0.80;;;12.10;98.50;;;;;;5004288;28;20530;-65
2022/02/18 11:58:08;;;;;;;2.35;0.90;;;12.30;96.40;;;;;;5005971;28;20036;-65
2022/02/18 12:00:50;;;;;;;1.30;0.60;;;12.30;96.70;;;;;;5005916;28;20513;-66
2022/02/18 12:03:16;;;;;;;0.98;0.63;;;12.30;97.30;;;;;;5005557;28;20072;-65
2022/02/18 12:06:12;;;;;;;1.73;0.85;;;12.30;98.40;;;;;;5003776;28;20029;-65
2022/02/18 12:08:39;;;;;;;1.77;0.95;;;12.40;97.40;;;;;;5006086;28;20038;-65
2022/02/18 12:11:16;;;;;;;1.75;0.68;;;12.40;98.30;;;;;;5002404;28;20112;-65
2022/02/18 12:13:54;;;;;;;4.07;0.90;;;12.40;94.80;;;;;;5006357;28;20038;-65
2022/02/18 12:16:22;;;;;;;2.20;0.80;;;12.50;96.30;;;;;;5002496;28;20038;-66
2022/02/18 12:19:13;;;;;;;3.17;1.10;;;12.50;95.70;;;;;;4999367;28;20047;-65
2022/02/18 12:22:01;;;;;;;0.90;0.80;;;12.50;94.20;;;;;;5001705;28;20032;-65
2022/02/18 12:24:32;;;;;;;;;;;12.50;95.00;;;;;;5008421;28;20392;-65
2022/02/18 12:27:23;;;;;;;3.20;0.70;;;12.50;94.70;;;;;;5009759;28;20400;-65
2022/02/18 12:29:53;;;;;;;4.47;1.00;;;12.50;95.60;;;;;;5026933;28;20037;-65
2022/02/18 12:32:20;;;;;;;3.40;0.90;;;12.50;96.60;;;;;;5010318;28;20030;-65
2022/02/18 12:35:02;;;;;;;1.92;1.08;;;12.50;95.90;;;;;;5009011;28;20102;-65
2022/02/18 12:37:27;;;;;;;3.15;0.90;;;12.50;95.40;;;;;;5005690;28;20117;-65
2022/02/18 12:39:57;;;;;;;3.63;1.00;;;12.40;95.30;;;;;;5011395;28;20121;-65
2022/02/18 12:42:32;;;;;;;4.13;1.13;;;12.40;95.40;;;;;;5003649;28;20030;-64
2022/02/18 12:45:01;;;;;;;2.33;1.20;;;12.50;93.80;;;;;;5004766;28;22156;-64
2022/02/18 12:47:28;;;;;;;2.83;0.88;;;12.50;94.50;;;;;;5004642;28;20041;-65
2022/02/18 12:50:04;;;;;;;1.67;0.75;;;12.50;94.90;;;;;;5008196;28;20022;-65
2022/02/18 12:52:30;;;;;;;2.25;1.00;;;12.40;95.10;;;;;;5002410;28;20034;-65
2022/02/18 12:55:05;;;;;;;4.30;1.05;;;12.50;93.80;;;;;;5007232;28;20054;-65
2022/02/18 12:57:41;;;;;;;1.58;0.70;;;12.50;93.70;;;;;;5002771;28;20141;-65